createdAt,value
2018-12-18T00:00:33.985Z,1018.18
2018-12-18T00:01:34.002Z,1018.17
2018-12-18T00:02:34.016Z,1018.16
2018-12-18T00:03:39.272Z,1018.21
2018-12-18T00:04:34.048Z,1018.18
2018-12-18T00:05:34.069Z,1018.17
2018-12-18T00:06:34.080Z,1018.12
2018-12-18T00:07:34.099Z,1018.12
2018-12-18T00:08:34.114Z,1018.13
2018-12-18T00:09:34.129Z,1018.15
2018-12-18T00:10:34.145Z,1018.14
2018-12-18T00:11:34.163Z,1018.13
2018-12-18T00:12:34.177Z,1018.13
2018-12-18T00:13:34.191Z,1018.12
2018-12-18T00:14:34.207Z,1018.11
2018-12-18T00:15:34.227Z,1018.10
2018-12-18T00:16:34.239Z,1018.11
2018-12-18T00:17:34.258Z,1018.11
2018-12-18T00:18:34.275Z,1018.12
2018-12-18T00:19:34.290Z,1018.07
2018-12-18T00:20:34.302Z,1018.05
2018-12-18T00:21:34.321Z,1018.09
2018-12-18T00:22:34.337Z,1018.10
2018-12-18T00:23:34.355Z,1018.09
2018-12-18T00:24:34.370Z,1018.05
2018-12-18T00:25:34.386Z,1018.02
2018-12-18T00:26:34.400Z,1018.12
2018-12-18T00:27:34.415Z,1018.11
2018-12-18T00:28:34.433Z,1018.11
2018-12-18T00:29:34.449Z,1018.13
2018-12-18T00:30:34.463Z,1018.14
2018-12-18T00:31:34.483Z,1018.07
2018-12-18T00:32:34.497Z,1018.09
2018-12-18T00:33:34.515Z,1018.11
2018-12-18T00:34:34.530Z,1018.12
2018-12-18T00:35:34.544Z,1018.12
2018-12-18T00:36:34.562Z,1018.12
2018-12-18T00:37:34.575Z,1018.11
2018-12-18T00:38:34.594Z,1018.13
2018-12-18T00:39:34.611Z,1018.13
2018-12-18T00:40:34.623Z,1018.11
2018-12-18T00:41:34.639Z,1018.09
2018-12-18T00:42:34.656Z,1018.10
2018-12-18T00:43:34.734Z,1018.14
2018-12-18T00:44:34.687Z,1018.11
2018-12-18T00:45:34.706Z,1018.18
2018-12-18T00:46:34.721Z,1018.20
2018-12-18T00:47:34.738Z,1018.19
2018-12-18T00:48:34.756Z,1018.27
2018-12-18T00:49:34.770Z,1018.19
2018-12-18T00:50:34.783Z,1018.20
2018-12-18T00:51:34.800Z,1018.24
2018-12-18T00:52:34.818Z,1018.21
2018-12-18T00:53:34.833Z,1018.19
2018-12-18T00:54:34.848Z,1018.19
2018-12-18T00:55:34.864Z,1018.16
2018-12-18T00:56:34.879Z,1018.18
2018-12-18T00:57:34.895Z,1018.13
2018-12-18T00:58:34.911Z,1018.18
2018-12-18T00:59:34.930Z,1018.15
2018-12-18T01:00:34.948Z,1018.16
2018-12-18T01:01:34.963Z,1018.14
2018-12-18T01:02:34.976Z,1018.15
2018-12-18T01:03:34.995Z,1018.11
2018-12-18T01:04:35.011Z,1018.14
2018-12-18T01:05:35.024Z,1018.14
2018-12-18T01:06:35.043Z,1018.15
2018-12-18T01:07:35.057Z,1018.14
2018-12-18T01:08:35.077Z,1018.15
2018-12-18T01:09:35.089Z,1018.16
2018-12-18T01:10:35.106Z,1018.12
2018-12-18T01:11:35.120Z,1018.13
2018-12-18T01:12:35.136Z,1018.11
2018-12-18T01:13:35.154Z,1018.18
2018-12-18T01:14:35.168Z,1018.13
2018-12-18T01:15:35.185Z,1018.14
2018-12-18T01:16:35.203Z,1018.13
2018-12-18T01:17:35.219Z,1018.15
2018-12-18T01:18:35.233Z,1018.19
2018-12-18T01:19:35.252Z,1018.19
2018-12-18T01:20:35.268Z,1018.22
2018-12-18T01:21:35.283Z,1018.20
2018-12-18T01:22:35.298Z,1018.16
2018-12-18T01:23:35.316Z,1018.18
2018-12-18T01:24:35.331Z,1018.19
2018-12-18T01:25:35.347Z,1018.17
2018-12-18T01:26:35.364Z,1018.19
2018-12-18T01:27:35.378Z,1018.19
2018-12-18T01:28:35.393Z,1018.18
2018-12-18T01:29:35.412Z,1018.18
2018-12-18T01:30:35.432Z,1018.20
2018-12-18T01:31:35.445Z,1018.15
2018-12-18T01:32:35.460Z,1018.14
2018-12-18T01:33:35.476Z,1018.14
2018-12-18T01:34:35.491Z,1018.15
2018-12-18T01:35:35.507Z,1018.12
2018-12-18T01:36:35.522Z,1018.14
2018-12-18T01:37:35.539Z,1018.20
2018-12-18T01:38:35.557Z,1018.21
2018-12-18T01:39:35.571Z,1018.16
2018-12-18T01:40:35.589Z,1018.20
2018-12-18T01:41:35.605Z,1018.23
2018-12-18T01:42:35.619Z,1018.24
2018-12-18T01:43:35.638Z,1018.20
2018-12-18T01:44:35.655Z,1018.23
2018-12-18T01:45:35.669Z,1018.20
2018-12-18T01:46:35.684Z,1018.16
2018-12-18T01:47:35.702Z,1018.15
2018-12-18T01:48:35.715Z,1018.19
2018-12-18T01:49:35.734Z,1018.27
2018-12-18T01:50:35.749Z,1018.21
2018-12-18T01:51:35.764Z,1018.20
2018-12-18T01:52:35.782Z,1018.21
2018-12-18T01:53:35.796Z,1018.19
2018-12-18T01:54:35.811Z,1018.18
2018-12-18T01:55:35.899Z,1018.17
2018-12-18T01:56:35.843Z,1018.16
2018-12-18T01:57:35.863Z,1018.16
2018-12-18T01:58:35.878Z,1018.16
2018-12-18T01:59:35.894Z,1018.18
2018-12-18T02:00:35.926Z,1018.22
2018-12-18T02:01:35.926Z,1018.19
2018-12-18T02:02:35.940Z,1018.20
2018-12-18T02:03:35.957Z,1018.25
2018-12-18T02:04:35.973Z,1018.21
2018-12-18T02:05:35.991Z,1018.20
2018-12-18T02:06:36.008Z,1018.25
2018-12-18T02:07:36.020Z,1018.28
2018-12-18T02:08:36.038Z,1018.22
2018-12-18T02:09:36.054Z,1018.24
2018-12-18T02:10:36.068Z,1018.18
2018-12-18T02:11:36.085Z,1018.20
2018-12-18T02:12:36.101Z,1018.21
2018-12-18T02:13:36.118Z,1018.21
2018-12-18T02:14:36.135Z,1018.15
2018-12-18T02:15:36.150Z,1018.16
2018-12-18T02:16:36.166Z,1018.22
2018-12-18T02:17:36.182Z,1018.16
2018-12-18T02:18:36.197Z,1018.16
2018-12-18T02:19:36.215Z,1018.17
2018-12-18T02:20:36.229Z,1018.13
2018-12-18T02:21:36.248Z,1018.15
2018-12-18T02:22:36.261Z,1018.09
2018-12-18T02:23:36.278Z,1018.07
2018-12-18T02:24:36.293Z,1018.02
2018-12-18T02:25:36.311Z,1018.00
2018-12-18T02:26:36.325Z,1018.01
2018-12-18T02:27:36.344Z,1017.93
2018-12-18T02:28:36.359Z,1017.96
2018-12-18T02:29:36.375Z,1017.94
2018-12-18T02:30:36.394Z,1017.95
2018-12-18T02:31:36.415Z,1018.00
2018-12-18T02:32:36.422Z,1017.99
2018-12-18T02:33:36.437Z,1018.09
2018-12-18T02:34:36.454Z,1018.07
2018-12-18T02:35:36.470Z,1018.12
2018-12-18T02:36:36.486Z,1018.16
2018-12-18T02:37:36.501Z,1018.21
2018-12-18T02:38:36.521Z,1018.22
2018-12-18T02:39:36.537Z,1018.17
2018-12-18T02:40:36.554Z,1018.18
2018-12-18T02:41:36.567Z,1018.19
2018-12-18T02:42:36.584Z,1018.20
2018-12-18T02:43:36.602Z,1018.19
2018-12-18T02:44:36.619Z,1018.21
2018-12-18T02:45:36.633Z,1018.16
2018-12-18T02:46:36.646Z,1018.13
2018-12-18T02:47:36.664Z,1018.16
2018-12-18T02:48:36.680Z,1018.08
2018-12-18T02:49:36.696Z,1018.09
2018-12-18T02:50:36.713Z,1018.09
2018-12-18T02:51:36.737Z,1018.07
2018-12-18T02:52:36.748Z,1018.10
2018-12-18T02:53:36.779Z,1018.08
2018-12-18T02:54:36.779Z,1018.08
2018-12-18T02:55:36.794Z,1018.07
2018-12-18T02:56:36.813Z,1018.12
2018-12-18T02:57:36.825Z,1018.13
2018-12-18T02:58:36.839Z,1018.09
2018-12-18T02:59:36.859Z,1018.11
2018-12-18T03:00:36.870Z,1018.13
2018-12-18T03:01:36.889Z,1018.06
2018-12-18T03:02:36.904Z,1018.10
2018-12-18T03:03:36.920Z,1018.09
2018-12-18T03:04:36.938Z,1018.08
2018-12-18T03:05:36.955Z,1018.09
2018-12-18T03:06:36.967Z,1018.08
2018-12-18T03:07:36.986Z,1018.11
2018-12-18T03:08:36.998Z,1018.15
2018-12-18T03:09:37.021Z,1018.13
2018-12-18T03:10:37.033Z,1018.16
2018-12-18T03:11:37.048Z,1018.17
2018-12-18T03:12:37.069Z,1018.19
2018-12-18T03:13:37.079Z,1018.19
2018-12-18T03:14:37.094Z,1018.23
2018-12-18T03:15:37.113Z,1018.20
2018-12-18T03:16:37.130Z,1018.21
2018-12-18T03:17:37.145Z,1018.19
2018-12-18T03:18:37.161Z,1018.20
2018-12-18T03:19:37.179Z,1018.25
2018-12-18T03:20:37.192Z,1018.24
2018-12-18T03:21:37.210Z,1018.25
2018-12-18T03:22:37.225Z,1018.22
2018-12-18T03:23:37.241Z,1018.20
2018-12-18T03:24:37.258Z,1018.22
2018-12-18T03:25:37.273Z,1018.16
2018-12-18T03:26:37.293Z,1018.14
2018-12-18T03:27:37.308Z,1018.11
2018-12-18T03:28:37.326Z,1018.13
2018-12-18T03:29:37.338Z,1018.11
2018-12-18T03:30:37.359Z,1018.11
2018-12-18T03:31:37.371Z,1018.12
2018-12-18T03:32:37.386Z,1018.15
2018-12-18T03:33:37.403Z,1018.15
2018-12-18T03:34:37.419Z,1018.12
2018-12-18T03:35:37.436Z,1018.17
2018-12-18T03:36:37.447Z,1018.17
2018-12-18T03:37:37.465Z,1018.19
2018-12-18T03:38:37.479Z,1018.15
2018-12-18T03:39:37.498Z,1018.14
2018-12-18T03:40:37.513Z,1018.16
2018-12-18T03:41:37.529Z,1018.14
2018-12-18T03:42:37.543Z,1018.14
2018-12-18T03:43:37.563Z,1018.15
2018-12-18T03:44:37.576Z,1018.14
2018-12-18T03:45:37.593Z,1018.09
2018-12-18T03:46:37.608Z,1018.08
2018-12-18T03:47:37.627Z,1018.04
2018-12-18T03:48:37.641Z,1018.00
2018-12-18T03:49:37.658Z,1018.05
2018-12-18T03:50:37.674Z,1018.05
2018-12-18T03:51:37.692Z,1018.06
2018-12-18T03:52:37.703Z,1018.01
2018-12-18T03:53:37.722Z,1018.03
2018-12-18T03:54:37.736Z,1018.08
2018-12-18T03:55:37.753Z,1018.04
2018-12-18T03:56:37.769Z,1018.05
2018-12-18T03:57:37.794Z,1018.05
2018-12-18T03:58:37.801Z,1018.03
2018-12-18T03:59:37.817Z,1018.04
2018-12-18T04:00:37.830Z,1017.97
2018-12-18T04:01:37.850Z,1018.00
2018-12-18T04:02:37.863Z,1018.01
2018-12-18T04:03:37.882Z,1018.05
2018-12-18T04:04:37.897Z,1018.00
2018-12-18T04:05:37.914Z,1018.02
2018-12-18T04:06:37.926Z,1018.04
2018-12-18T04:07:37.946Z,1018.02
2018-12-18T04:08:37.959Z,1018.09
2018-12-18T04:09:37.976Z,1018.08
2018-12-18T04:10:37.991Z,1018.02
2018-12-18T04:11:38.007Z,1018.05
2018-12-18T04:12:38.027Z,1018.00
2018-12-18T04:13:38.039Z,1018.03
2018-12-18T04:14:38.057Z,1018.04
2018-12-18T04:15:38.074Z,1018.09
2018-12-18T04:16:38.089Z,1018.07
2018-12-18T04:17:38.106Z,1018.06
2018-12-18T04:18:38.119Z,1018.04
2018-12-18T04:19:38.141Z,1018.06
2018-12-18T04:20:38.158Z,1018.03
2018-12-18T04:21:38.167Z,1018.05
2018-12-18T04:22:38.183Z,1018.06
2018-12-18T04:23:38.202Z,1018.06
2018-12-18T04:24:38.215Z,1018.06
2018-12-18T04:25:38.234Z,1018.04
2018-12-18T04:26:38.249Z,1018.03
2018-12-18T04:27:38.266Z,1018.03
2018-12-18T04:28:38.279Z,1018.04
2018-12-18T04:29:38.298Z,1018.06
2018-12-18T04:30:38.312Z,1018.01
2018-12-18T04:31:38.327Z,1018.02
2018-12-18T04:32:38.352Z,1017.99
2018-12-18T04:33:38.361Z,1017.99
2018-12-18T04:34:42.833Z,1017.93
2018-12-18T04:35:38.391Z,1017.96
2018-12-18T04:36:38.405Z,1017.95
2018-12-18T04:37:38.424Z,1017.97
2018-12-18T04:38:38.441Z,1017.94
2018-12-18T04:39:38.454Z,1017.95
2018-12-18T04:40:38.471Z,1018.02
2018-12-18T04:41:38.487Z,1017.98
2018-12-18T04:42:38.501Z,1017.99
2018-12-18T04:43:38.517Z,1018.03
2018-12-18T04:44:38.536Z,1018.04
2018-12-18T04:45:38.551Z,1018.01
2018-12-18T04:46:38.565Z,1018.05
2018-12-18T04:47:38.581Z,1018.09
2018-12-18T04:48:38.604Z,1018.08
2018-12-18T04:49:38.615Z,1018.08
2018-12-18T04:50:38.631Z,1018.11
2018-12-18T04:51:38.650Z,1018.10
2018-12-18T04:52:38.661Z,1018.05
2018-12-18T04:53:38.675Z,1018.09
2018-12-18T04:54:38.692Z,1018.12
2018-12-18T04:55:38.710Z,1018.10
2018-12-18T04:56:38.723Z,1018.08
2018-12-18T04:57:38.739Z,1018.10
2018-12-18T04:58:38.755Z,1018.10
2018-12-18T04:59:38.776Z,1018.10
2018-12-18T05:00:38.789Z,1018.09
2018-12-18T05:01:38.805Z,1018.09
2018-12-18T05:02:38.818Z,1018.11
2018-12-18T05:03:38.838Z,1018.14
2018-12-18T05:04:38.850Z,1018.11
2018-12-18T05:05:38.865Z,1018.12
2018-12-18T05:06:38.884Z,1018.19
2018-12-18T05:07:38.900Z,1018.12
2018-12-18T05:08:38.914Z,1018.17
2018-12-18T05:09:38.930Z,1018.13
2018-12-18T05:10:38.947Z,1018.14
2018-12-18T05:11:39.012Z,1018.04
2018-12-18T05:12:38.983Z,1018.15
2018-12-18T05:13:38.991Z,1018.09
2018-12-18T05:14:39.012Z,1018.12
2018-12-18T05:15:39.027Z,1018.14
2018-12-18T05:16:39.038Z,1018.13
2018-12-18T05:17:39.054Z,1018.13
2018-12-18T05:18:39.070Z,1018.18
2018-12-18T05:19:39.086Z,1018.13
2018-12-18T05:20:39.105Z,1018.13
2018-12-18T05:21:39.122Z,1018.09
2018-12-18T05:22:39.134Z,1018.12
2018-12-18T05:23:39.152Z,1018.10
2018-12-18T05:24:39.168Z,1018.11
2018-12-18T05:25:39.182Z,1018.15
2018-12-18T05:26:39.196Z,1018.09
2018-12-18T05:27:39.212Z,1018.05
2018-12-18T05:28:39.229Z,1018.10
2018-12-18T05:29:39.245Z,1018.10
2018-12-18T05:30:39.264Z,1018.06
2018-12-18T05:31:39.279Z,1018.08
2018-12-18T05:32:39.293Z,1018.09
2018-12-18T05:33:39.308Z,1018.04
2018-12-18T05:34:39.322Z,1018.03
2018-12-18T05:35:39.339Z,1018.03
2018-12-18T05:36:39.353Z,1018.06
2018-12-18T05:37:39.369Z,1018.08
2018-12-18T05:38:39.388Z,1018.06
2018-12-18T05:39:39.403Z,1018.05
2018-12-18T05:40:39.419Z,1018.09
2018-12-18T05:41:39.434Z,1018.08
2018-12-18T05:42:39.452Z,1018.02
2018-12-18T05:43:39.468Z,1018.07
2018-12-18T05:44:39.481Z,1018.07
2018-12-18T05:45:39.498Z,1018.13
2018-12-18T05:46:39.574Z,1018.12
2018-12-18T05:47:39.530Z,1018.11
2018-12-18T05:48:39.543Z,1018.15
2018-12-18T05:49:39.562Z,1018.16
2018-12-18T05:50:39.575Z,1018.20
2018-12-18T05:51:39.591Z,1018.22
2018-12-18T05:52:39.610Z,1018.18
2018-12-18T05:53:39.622Z,1018.15
2018-12-18T05:54:39.640Z,1018.17
2018-12-18T05:55:39.655Z,1018.14
2018-12-18T05:56:39.674Z,1018.13
2018-12-18T05:57:39.688Z,1018.14
2018-12-18T05:58:39.702Z,1018.13
2018-12-18T05:59:39.718Z,1018.14
2018-12-18T06:00:39.735Z,1018.15
2018-12-18T06:01:39.752Z,1018.18
2018-12-18T06:02:39.765Z,1018.14
2018-12-18T06:03:39.782Z,1018.11
2018-12-18T06:04:39.799Z,1018.16
2018-12-18T06:05:39.816Z,1018.19
2018-12-18T06:06:39.829Z,1018.20
2018-12-18T06:07:39.845Z,1018.21
2018-12-18T06:08:39.862Z,1018.22
2018-12-18T06:09:39.878Z,1018.24
2018-12-18T06:10:39.892Z,1018.24
2018-12-18T06:11:39.961Z,1018.21
2018-12-18T06:12:39.926Z,1018.22
2018-12-18T06:13:39.940Z,1018.28
2018-12-18T06:14:39.958Z,1018.28
2018-12-18T06:15:39.972Z,1018.28
2018-12-18T06:16:39.989Z,1018.28
2018-12-18T06:17:40.009Z,1018.23
2018-12-18T06:18:40.022Z,1018.26
2018-12-18T06:19:40.036Z,1018.27
2018-12-18T06:20:40.054Z,1018.26
2018-12-18T06:21:40.069Z,1018.27
2018-12-18T06:22:40.086Z,1018.28
2018-12-18T06:23:40.102Z,1018.29
2018-12-18T06:24:40.118Z,1018.27
2018-12-18T06:25:40.135Z,1018.30
2018-12-18T06:26:40.251Z,1018.27
2018-12-18T06:27:40.166Z,1018.30
2018-12-18T06:28:40.181Z,1018.34
2018-12-18T06:29:40.195Z,1018.31
2018-12-18T06:30:40.213Z,1018.30
2018-12-18T06:31:40.230Z,1018.29
2018-12-18T06:32:40.244Z,1018.28
2018-12-18T06:33:40.261Z,1018.26
2018-12-18T06:34:40.279Z,1018.26
2018-12-18T06:35:40.294Z,1018.24
2018-12-18T06:36:40.309Z,1018.20
2018-12-18T06:37:40.326Z,1018.24
2018-12-18T06:38:40.339Z,1018.20
2018-12-18T06:39:40.361Z,1018.28
2018-12-18T06:40:40.374Z,1018.26
2018-12-18T06:41:40.387Z,1018.25
2018-12-18T06:42:40.405Z,1018.27
2018-12-18T06:43:40.420Z,1018.22
2018-12-18T06:44:40.439Z,1018.23
2018-12-18T06:45:40.454Z,1018.24
2018-12-18T06:46:40.470Z,1018.28
2018-12-18T06:47:40.488Z,1018.34
2018-12-18T06:48:40.505Z,1018.29
2018-12-18T06:49:40.522Z,1018.31
2018-12-18T06:50:40.539Z,1018.24
2018-12-18T06:51:40.548Z,1018.27
2018-12-18T06:52:40.566Z,1018.22
2018-12-18T06:53:40.581Z,1018.23
2018-12-18T06:54:40.598Z,1018.25
2018-12-18T06:55:40.613Z,1018.24
2018-12-18T06:56:40.631Z,1018.27
2018-12-18T06:57:40.646Z,1018.30
2018-12-18T06:58:40.664Z,1018.35
2018-12-18T06:59:40.677Z,1018.36
2018-12-18T07:00:40.696Z,1018.36
2018-12-18T07:01:40.709Z,1018.32
2018-12-18T07:02:40.725Z,1018.33
2018-12-18T07:03:40.743Z,1018.31
2018-12-18T07:04:40.756Z,1018.38
2018-12-18T07:05:40.772Z,1018.39
2018-12-18T07:06:40.789Z,1018.38
2018-12-18T07:07:40.812Z,1018.40
2018-12-18T07:08:40.820Z,1018.40
2018-12-18T07:09:40.837Z,1018.39
2018-12-18T07:10:40.856Z,1018.39
2018-12-18T07:11:40.872Z,1018.41
2018-12-18T07:12:40.887Z,1018.37
2018-12-18T07:13:40.904Z,1018.38
2018-12-18T07:14:40.919Z,1018.36
2018-12-18T07:15:40.936Z,1018.37
2018-12-18T07:16:40.951Z,1018.37
2018-12-18T07:17:40.968Z,1018.37
2018-12-18T07:18:40.980Z,1018.35
2018-12-18T07:19:40.999Z,1018.34
2018-12-18T07:20:41.015Z,1018.35
2018-12-18T07:21:41.031Z,1018.39
2018-12-18T07:22:41.046Z,1018.32
2018-12-18T07:23:41.062Z,1018.34
2018-12-18T07:24:41.077Z,1018.35
2018-12-18T07:25:41.092Z,1018.33
2018-12-18T07:26:41.107Z,1018.31
2018-12-18T07:27:41.125Z,1018.35
2018-12-18T07:28:41.140Z,1018.32
2018-12-18T07:29:41.154Z,1018.32
2018-12-18T07:30:41.173Z,1018.31
2018-12-18T07:31:41.187Z,1018.33
2018-12-18T07:32:41.201Z,1018.34
2018-12-18T07:33:41.220Z,1018.33
2018-12-18T07:34:42.587Z,1018.38
2018-12-18T07:35:41.249Z,1018.41
2018-12-18T07:36:41.266Z,1018.39
2018-12-18T07:37:41.279Z,1018.41
2018-12-18T07:38:41.297Z,1018.41
2018-12-18T07:39:41.317Z,1018.37
2018-12-18T07:40:41.327Z,1018.36
2018-12-18T07:41:41.346Z,1018.33
2018-12-18T07:42:41.361Z,1018.32
2018-12-18T07:43:41.374Z,1018.34
2018-12-18T07:44:41.391Z,1018.36
2018-12-18T07:45:41.409Z,1018.35
2018-12-18T07:46:41.422Z,1018.35
2018-12-18T07:47:41.441Z,1018.36
2018-12-18T07:48:41.452Z,1018.31
2018-12-18T07:49:41.484Z,1018.32
2018-12-18T07:50:41.484Z,1018.31
2018-12-18T07:51:41.503Z,1018.29
2018-12-18T07:52:41.516Z,1018.21
2018-12-18T07:53:41.534Z,1018.19
2018-12-18T07:54:41.548Z,1018.18
2018-12-18T07:55:41.568Z,1018.18
2018-12-18T07:56:41.579Z,1018.16
2018-12-18T07:57:41.643Z,1018.09
2018-12-18T07:58:41.612Z,1018.05
2018-12-18T07:59:41.628Z,1017.97
2018-12-18T08:00:41.642Z,1018.00
2018-12-18T08:01:41.655Z,1017.96
2018-12-18T08:02:41.671Z,1017.95
2018-12-18T08:03:41.689Z,1017.87
2018-12-18T08:04:41.703Z,1017.79
2018-12-18T08:05:41.718Z,1017.80
2018-12-18T08:06:41.733Z,1017.79
2018-12-18T08:07:41.748Z,1017.80
2018-12-18T08:08:41.763Z,1017.75
2018-12-18T08:09:41.780Z,1017.70
2018-12-18T08:10:41.796Z,1017.74
2018-12-18T08:11:41.810Z,1017.72
2018-12-18T08:12:41.825Z,1017.75
2018-12-18T08:13:41.840Z,1017.78
2018-12-18T08:14:41.856Z,1017.74
2018-12-18T08:15:41.872Z,1017.75
2018-12-18T08:16:41.886Z,1017.77
2018-12-18T08:17:41.903Z,1017.75
2018-12-18T08:18:41.920Z,1017.73
2018-12-18T08:19:41.933Z,1017.73
2018-12-18T08:20:41.950Z,1017.69
2018-12-18T08:21:41.965Z,1017.76
2018-12-18T08:22:41.979Z,1017.70
2018-12-18T08:23:41.997Z,1017.69
2018-12-18T08:24:42.013Z,1017.68
2018-12-18T08:25:42.026Z,1017.63
2018-12-18T08:26:42.045Z,1017.61
2018-12-18T08:27:42.059Z,1017.62
2018-12-18T08:28:42.074Z,1017.60
2018-12-18T08:29:42.087Z,1017.63
2018-12-18T08:30:42.105Z,1017.67
2018-12-18T08:31:42.170Z,1017.62
2018-12-18T08:32:42.133Z,1017.65
2018-12-18T08:33:42.149Z,1017.67
2018-12-18T08:34:42.166Z,1017.59
2018-12-18T08:35:42.188Z,1017.63
2018-12-18T08:36:42.227Z,1017.63
2018-12-18T08:37:42.212Z,1017.64
2018-12-18T08:38:42.233Z,1017.57
2018-12-18T08:39:42.241Z,1017.64
2018-12-18T08:40:42.260Z,1017.58
2018-12-18T08:41:42.272Z,1017.57
2018-12-18T08:42:42.287Z,1017.56
2018-12-18T08:43:42.309Z,1017.59
2018-12-18T08:44:42.318Z,1017.59
2018-12-18T08:45:42.339Z,1017.59
2018-12-18T08:46:42.353Z,1017.57
2018-12-18T08:47:42.362Z,1017.55
2018-12-18T08:48:42.383Z,1017.50
2018-12-18T08:49:42.400Z,1017.51
2018-12-18T08:50:42.427Z,1017.52
2018-12-18T08:51:42.436Z,1017.53
2018-12-18T08:52:42.497Z,1017.53
2018-12-18T08:53:42.454Z,1017.53
2018-12-18T08:54:42.470Z,1017.54
2018-12-18T08:55:42.490Z,1017.50
2018-12-18T08:56:42.503Z,1017.51
2018-12-18T08:57:42.546Z,1017.54
2018-12-18T08:58:42.533Z,1017.52
2018-12-18T08:59:42.545Z,1017.57
2018-12-18T09:00:42.562Z,1017.56
2018-12-18T09:01:42.578Z,1017.53
2018-12-18T09:02:42.596Z,1017.55
2018-12-18T09:03:43.180Z,1017.56
2018-12-18T09:04:42.620Z,1017.60
2018-12-18T09:05:43.300Z,1017.59
2018-12-18T09:06:42.670Z,1017.60
2018-12-18T09:07:42.670Z,1017.59
2018-12-18T09:08:42.681Z,1017.58
2018-12-18T09:09:42.701Z,1017.58
2018-12-18T09:10:42.715Z,1017.56
2018-12-18T09:11:42.730Z,1017.55
2018-12-18T09:12:42.748Z,1017.55
2018-12-18T09:13:42.758Z,1017.57
2018-12-18T09:14:42.777Z,1017.51
2018-12-18T09:15:42.789Z,1017.51
2018-12-18T09:16:42.809Z,1017.52
2018-12-18T09:17:42.821Z,1017.50
2018-12-18T09:18:42.835Z,1017.51
2018-12-18T09:19:42.853Z,1017.46
2018-12-18T09:20:42.865Z,1017.45
2018-12-18T09:21:42.884Z,1017.44
2018-12-18T09:22:42.899Z,1017.42
2018-12-18T09:23:42.912Z,1017.41
2018-12-18T09:24:42.926Z,1017.41
2018-12-18T09:25:42.942Z,1017.39
2018-12-18T09:26:42.958Z,1017.38
2018-12-18T09:27:42.973Z,1017.40
2018-12-18T09:28:42.992Z,1017.40
2018-12-18T09:29:43.006Z,1017.38
2018-12-18T09:30:43.029Z,1017.32
2018-12-18T09:31:43.038Z,1017.29
2018-12-18T09:32:43.056Z,1017.31
2018-12-18T09:33:43.068Z,1017.19
2018-12-18T09:34:43.083Z,1017.21
2018-12-18T09:35:49.523Z,1017.16
2018-12-18T09:36:43.115Z,1017.19
2018-12-18T09:37:43.127Z,1017.18
2018-12-18T09:38:43.146Z,1017.18
2018-12-18T09:39:43.159Z,1017.18
2018-12-18T09:40:43.237Z,1017.16
2018-12-18T09:41:43.242Z,1017.13
2018-12-18T09:42:43.208Z,1017.11
2018-12-18T09:43:43.226Z,1017.12
2018-12-18T09:44:43.237Z,1017.06
2018-12-18T09:45:43.251Z,1017.07
2018-12-18T09:46:43.316Z,1017.05
2018-12-18T09:47:43.286Z,1017.08
2018-12-18T09:48:43.302Z,1017.11
2018-12-18T09:49:43.316Z,1017.10
2018-12-18T09:50:43.333Z,1017.10
2018-12-18T09:51:43.348Z,1017.10
2018-12-18T09:52:43.363Z,1017.12
2018-12-18T09:53:43.377Z,1017.14
2018-12-18T09:54:43.394Z,1017.13
2018-12-18T09:55:43.410Z,1017.13
2018-12-18T09:56:43.523Z,1017.15
2018-12-18T09:57:44.194Z,1017.18
2018-12-18T09:58:43.459Z,1017.22
2018-12-18T09:59:43.728Z,1017.21
2018-12-18T10:00:43.491Z,1017.22
2018-12-18T10:01:43.507Z,1017.20
2018-12-18T10:02:43.521Z,1017.05
2018-12-18T10:03:43.536Z,1017.06
2018-12-18T10:04:43.554Z,1017.06
2018-12-18T10:05:43.570Z,1017.07
2018-12-18T10:06:45.039Z,1017.02
2018-12-18T10:07:43.604Z,1017.03
2018-12-18T10:08:43.619Z,1017.07
2018-12-18T10:09:43.634Z,1017.01
2018-12-18T10:10:43.649Z,1016.94
2018-12-18T10:11:43.665Z,1016.93
2018-12-18T10:12:43.681Z,1016.94
2018-12-18T10:13:44.149Z,1016.87
2018-12-18T10:14:43.716Z,1016.83
2018-12-18T10:15:43.738Z,1016.84
2018-12-18T10:16:43.746Z,1016.82
2018-12-18T10:17:43.766Z,1016.78
2018-12-18T10:18:43.779Z,1016.76
2018-12-18T10:19:43.798Z,1016.77
2018-12-18T10:20:43.812Z,1016.72
2018-12-18T10:21:43.830Z,1016.68
2018-12-18T10:22:43.848Z,1016.64
2018-12-18T10:23:43.864Z,1016.64
2018-12-18T10:24:43.879Z,1016.63
2018-12-18T10:25:43.897Z,1016.60
2018-12-18T10:26:43.911Z,1016.59
2018-12-18T10:27:43.931Z,1016.62
2018-12-18T10:28:43.943Z,1016.61
2018-12-18T10:29:43.963Z,1016.68
2018-12-18T10:30:43.979Z,1016.70
2018-12-18T10:31:43.993Z,1016.66
2018-12-18T10:32:44.020Z,1016.65
2018-12-18T10:33:44.029Z,1016.63
2018-12-18T10:34:44.242Z,1016.59
2018-12-18T10:35:44.062Z,1016.57
2018-12-18T10:36:44.080Z,1016.54
2018-12-18T10:37:44.094Z,1016.54
2018-12-18T10:38:44.109Z,1016.50
2018-12-18T10:39:44.128Z,1016.47
2018-12-18T10:40:44.150Z,1016.48
2018-12-18T10:41:44.162Z,1016.53
2018-12-18T10:42:44.178Z,1016.52
2018-12-18T10:43:44.197Z,1016.48
2018-12-18T10:44:44.208Z,1016.47
2018-12-18T10:45:44.226Z,1016.49
2018-12-18T10:46:44.244Z,1016.49
2018-12-18T10:47:44.263Z,1016.50
2018-12-18T10:48:44.276Z,1016.50
2018-12-18T10:49:44.292Z,1016.51
2018-12-18T10:50:44.312Z,1016.47
2018-12-18T10:51:44.327Z,1016.51
2018-12-18T10:52:44.351Z,1016.48
2018-12-18T10:53:44.359Z,1016.44
2018-12-18T10:54:44.376Z,1016.45
2018-12-18T10:55:44.396Z,1016.44
2018-12-18T10:56:44.412Z,1016.41
2018-12-18T10:57:44.436Z,1016.36
2018-12-18T10:58:44.447Z,1016.41
2018-12-18T10:59:44.461Z,1016.35
2018-12-18T11:00:44.479Z,1016.33
2018-12-18T11:01:44.495Z,1016.32
2018-12-18T11:02:44.515Z,1016.28
2018-12-18T11:03:44.538Z,1016.29
2018-12-18T11:04:44.549Z,1016.28
2018-12-18T11:05:44.564Z,1016.29
2018-12-18T11:06:44.582Z,1016.21
2018-12-18T11:07:44.598Z,1016.26
2018-12-18T11:08:44.612Z,1016.24
2018-12-18T11:09:44.632Z,1016.25
2018-12-18T11:10:44.648Z,1016.24
2018-12-18T11:11:44.664Z,1016.22
2018-12-18T11:12:44.681Z,1016.19
2018-12-18T11:13:44.698Z,1016.13
2018-12-18T11:14:44.715Z,1016.12
2018-12-18T11:15:44.731Z,1016.13
2018-12-18T11:16:44.746Z,1016.11
2018-12-18T11:17:44.764Z,1016.08
2018-12-18T11:18:44.780Z,1016.06
2018-12-18T11:19:44.798Z,1016.01
2018-12-18T11:20:44.819Z,1015.99
2018-12-18T11:21:44.831Z,1015.98
2018-12-18T11:22:44.851Z,1015.97
2018-12-18T11:23:44.869Z,1015.92
2018-12-18T11:24:44.881Z,1015.92
2018-12-18T11:25:44.900Z,1015.92
2018-12-18T11:26:44.918Z,1015.89
2018-12-18T11:27:44.936Z,1015.88
2018-12-18T11:28:44.951Z,1015.83
2018-12-18T11:29:44.966Z,1015.74
2018-12-18T11:30:44.985Z,1015.72
2018-12-18T11:31:45.001Z,1015.69
2018-12-18T11:32:45.020Z,1015.72
2018-12-18T11:33:45.036Z,1015.67
2018-12-18T11:34:45.051Z,1015.63
2018-12-18T11:35:45.076Z,1015.61
2018-12-18T11:36:45.084Z,1015.52
2018-12-18T11:37:45.103Z,1015.50
2018-12-18T11:38:45.121Z,1015.52
2018-12-18T11:39:45.138Z,1015.48
2018-12-18T11:40:45.154Z,1015.53
2018-12-18T11:41:45.270Z,1015.45
2018-12-18T11:42:45.187Z,1015.44
2018-12-18T11:43:45.204Z,1015.39
2018-12-18T11:44:45.222Z,1015.38
2018-12-18T11:45:45.235Z,1015.39
2018-12-18T11:46:45.330Z,1015.34
2018-12-18T11:47:45.268Z,1015.36
2018-12-18T11:48:45.737Z,1015.38
2018-12-18T11:49:45.389Z,1015.37
2018-12-18T11:50:45.323Z,1015.40
2018-12-18T11:51:45.337Z,1015.38
2018-12-18T11:52:45.352Z,1015.33
2018-12-18T11:53:45.372Z,1015.32
2018-12-18T11:54:45.386Z,1015.30
2018-12-18T11:55:45.403Z,1015.32
2018-12-18T11:56:45.421Z,1015.25
2018-12-18T11:57:45.439Z,1015.29
2018-12-18T11:58:45.453Z,1015.30
2018-12-18T11:59:45.470Z,1015.24
2018-12-18T12:00:45.489Z,1015.20
2018-12-18T12:01:45.506Z,1015.22
2018-12-18T12:02:45.520Z,1015.24
2018-12-18T12:03:45.540Z,1015.24
2018-12-18T12:04:45.555Z,1015.10
2018-12-18T12:05:45.571Z,1015.10